Time;durP1;ratioP1;P1;durP2;ratioP2;P2;SDS_P1;SDS_P2;PMS_P1;PMS_P2;Temp;Humidity;BMP_temperature;BMP_pressure;BME280_temperature;BME280_humidity;BME280_pressure;Samples;Min_cycle;Max_cycle;Signal;HPM_P1;HPM_P2
2022/05/31 00:02:27;;;;;;;3.97;1.73;;;;;;;;;;4992195;23;20234;-87
2022/05/31 00:05:32;;;;;;;2.87;1.80;;;;;;;;;;4945189;29;20184;-88
2022/05/31 00:08:36;;;;;;;2.60;1.50;;;;;;;;;;4945147;29;20216;-87
2022/05/31 00:11:44;;;;;;;2.07;1.60;;;;;;;;;;4944898;29;20562;-86
2022/05/31 00:14:48;;;;;;;2.83;1.50;;;;;;;;;;4944728;28;20183;-86
2022/05/31 00:17:52;;;;;;;2.63;1.90;;;;;;;;;;4933454;29;20203;-86
2022/05/31 00:20:56;;;;;;;2.10;1.50;;;;;;;;;;4961093;28;20546;-87
2022/05/31 00:24:00;;;;;;;3.20;2.00;;;;;;;;;;4964033;28;20202;-87
2022/05/31 00:27:05;;;;;;;2.10;1.90;;;;;;;;;;4955428;28;20550;-86
2022/05/31 00:30:11;;;;;;;3.07;1.90;;;;;;;;;;4955033;28;20202;-86
2022/05/31 00:33:16;;;;;;;2.80;1.90;;;;;;;;;;4962995;28;20227;-87
2022/05/31 00:36:20;;;;;;;2.17;1.80;;;;;;;;;;4963437;28;20186;-86
2022/05/31 00:39:24;;;;;;;3.33;1.80;;;;;;;;;;4949135;28;20191;-86
2022/05/31 00:42:28;;;;;;;2.97;1.77;;;;;;;;;;4944415;29;20215;-86
2022/05/31 00:45:43;;;;;;;2.17;1.70;;;;;;;;;;4944460;29;20512;-86
2022/05/31 00:48:56;;;;;;;2.47;1.90;;;;;;;;;;4953683;28;20568;-86
2022/05/31 00:52:12;;;;;;;2.33;1.77;;;;;;;;;;4985917;28;20688;-87
2022/05/31 00:55:35;;;;;;;4.17;1.93;;;;;;;;;;4963273;28;20186;-86
2022/05/31 00:58:47;;;;;;;3.27;2.20;;;;;;;;;;4963083;28;20191;-87
2022/05/31 01:01:53;;;;;;;3.67;2.20;;;;;;;;;;4943734;29;20238;-86
2022/05/31 01:05:01;;;;;;;3.30;2.17;;;;;;;;;;4962112;28;20195;-86
2022/05/31 01:08:05;;;;;;;2.17;1.97;;;;;;;;;;4961402;28;20206;-86
2022/05/31 01:11:23;;;;;;;2.23;2.03;;;;;;;;;;4976481;28;20514;-86
2022/05/31 01:14:54;;;;;;;2.20;2.00;;;;;;;;;;4985536;28;20178;-87
2022/05/31 01:18:37;;;;;;;3.07;2.10;;;;;;;;;;4965050;28;20187;-87
2022/05/31 01:22:17;;;;;;;2.13;1.90;;;;;;;;;;4955039;29;20555;-87
2022/05/31 01:25:25;;;;;;;3.00;2.00;;;;;;;;;;4943756;29;20183;-86
2022/05/31 01:29:05;;;;;;;2.63;2.30;;;;;;;;;;4950958;29;20215;-86
2022/05/31 01:32:11;;;;;;;2.53;2.20;;;;;;;;;;4944033;28;20223;-86
2022/05/31 01:35:21;;;;;;;3.70;2.10;;;;;;;;;;4954849;29;20525;-87
2022/05/31 01:38:33;;;;;;;2.93;2.57;;;;;;;;;;4969093;28;20536;-87
2022/05/31 01:41:55;;;;;;;2.53;2.33;;;;;;;;;;4957236;28;20223;-87
2022/05/31 01:45:06;;;;;;;2.63;2.43;;;;;;;;;;4943835;29;20621;-86
2022/05/31 01:48:10;;;;;;;3.27;2.47;;;;;;;;;;4954908;28;20212;-87
2022/05/31 01:51:14;;;;;;;4.07;2.40;;;;;;;;;;4943660;29;20184;-86
2022/05/31 01:54:19;;;;;;;2.40;2.20;;;;;;;;;;4955124;29;20650;-87
2022/05/31 01:57:24;;;;;;;6.13;2.50;;;;;;;;;;4944024;28;20195;-86
2022/05/31 02:00:29;;;;;;;2.77;2.57;;;;;;;;;;4954511;28;20187;-86
2022/05/31 02:03:33;;;;;;;3.17;2.50;;;;;;;;;;4943355;29;20566;-86
2022/05/31 02:06:39;;;;;;;2.43;2.00;;;;;;;;;;4946396;29;20184;-87
2022/05/31 02:09:46;;;;;;;5.87;2.30;;;;;;;;;;4974672;28;20210;-87
2022/05/31 02:12:57;;;;;;;2.73;2.13;;;;;;;;;;4977778;28;20689;-86
2022/05/31 02:16:16;;;;;;;3.50;2.80;;;;;;;;;;4976504;28;20191;-85
2022/05/31 02:19:25;;;;;;;3.03;2.73;;;;;;;;;;4957592;28;20654;-85
2022/05/31 02:22:36;;;;;;;2.60;2.40;;;;;;;;;;4952452;28;20211;-85
2022/05/31 02:25:41;;;;;;;3.13;2.47;;;;;;;;;;4965790;28;20546;-85
2022/05/31 02:28:45;;;;;;;2.80;2.60;;;;;;;;;;4962433;28;20215;-85
2022/05/31 02:31:49;;;;;;;2.83;2.40;;;;;;;;;;4946491;28;20219;-85
2022/05/31 02:34:55;;;;;;;3.10;2.60;;;;;;;;;;4957670;29;20187;-85
2022/05/31 02:37:59;;;;;;;3.80;2.73;;;;;;;;;;4935884;28;20188;-85
2022/05/31 02:41:03;;;;;;;3.87;2.17;;;;;;;;;;4946228;29;20187;-85
2022/05/31 02:44:08;;;;;;;3.97;2.60;;;;;;;;;;4946275;29;20184;-85
2022/05/31 02:47:13;;;;;;;3.33;3.00;;;;;;;;;;4935472;28;20183;-85
2022/05/31 02:50:18;;;;;;;4.03;2.50;;;;;;;;;;4957432;28;20196;-85
2022/05/31 02:53:23;;;;;;;2.50;2.30;;;;;;;;;;4966515;28;20226;-85
2022/05/31 02:56:27;;;;;;;4.47;2.70;;;;;;;;;;4964680;28;20191;-85
2022/05/31 03:00:00;;;;;;;2.67;2.20;;;;;;;;;;4969279;28;20183;-85
2022/05/31 03:03:36;;;;;;;3.50;2.50;;;;;;;;;;4979781;28;20207;-85
2022/05/31 03:07:02;;;;;;;2.90;2.60;;;;;;;;;;4962731;28;20188;-85
2022/05/31 03:10:08;;;;;;;2.97;2.67;;;;;;;;;;4953375;28;20187;-85
2022/05/31 03:13:16;;;;;;;3.17;2.60;;;;;;;;;;4975968;28;20215;-85
2022/05/31 03:16:21;;;;;;;4.10;2.43;;;;;;;;;;4958985;28;20191;-85
2022/05/31 03:19:32;;;;;;;4.47;2.60;;;;;;;;;;4967911;28;20551;-85
2022/05/31 03:22:54;;;;;;;4.53;2.50;;;;;;;;;;4945345;29;20219;-85
2022/05/31 03:26:01;;;;;;;3.17;2.70;;;;;;;;;;4957920;28;20191;-85
2022/05/31 03:29:07;;;;;;;3.77;2.80;;;;;;;;;;4958521;28;20214;-86
2022/05/31 03:32:12;;;;;;;3.33;2.53;;;;;;;;;;4953533;28;20219;-85
2022/05/31 03:35:17;;;;;;;2.80;2.47;;;;;;;;;;4945419;28;20188;-85
2022/05/31 03:38:22;;;;;;;4.63;2.60;;;;;;;;;;4956185;28;20642;-85
2022/05/31 03:41:27;;;;;;;2.60;2.40;;;;;;;;;;4934719;29;20184;-85
2022/05/31 03:44:32;;;;;;;2.63;2.43;;;;;;;;;;4956714;28;20194;-85
2022/05/31 03:47:56;;;;;;;2.73;2.47;;;;;;;;;;4978136;28;20179;-85
2022/05/31 03:51:12;;;;;;;5.17;2.70;;;;;;;;;;4976697;28;20183;-85
2022/05/31 03:54:16;;;;;;;5.33;2.40;;;;;;;;;;4960775;28;20530;-85
2022/05/31 03:57:40;;;;;;;3.03;2.73;;;;;;;;;;4955929;28;20183;-84
2022/05/31 04:01:02;;;;;;;2.50;2.20;;;;;;;;;;4946921;29;20187;-85
2022/05/31 04:04:06;;;;;;;3.73;2.50;;;;;;;;;;4934241;28;20195;-85
2022/05/31 04:07:10;;;;;;;3.80;2.60;;;;;;;;;;4955648;29;20184;-85
2022/05/31 04:10:16;;;;;;;2.67;2.23;;;;;;;;;;4933596;29;20207;-85
2022/05/31 04:13:22;;;;;;;3.30;2.13;;;;;;;;;;4945453;28;20218;-85
2022/05/31 04:17:04;;;;;;;3.10;2.33;;;;;;;;;;4960593;28;20184;-85
2022/05/31 04:20:09;;;;;;;2.40;2.20;;;;;;;;;;4933816;29;20179;-85
2022/05/31 04:27:17;;;;;;;3.37;2.27;;;;;;;;;;4924427;29;20189;-85
2022/05/31 04:30:43;;;;;;;3.07;2.33;;;;;;;;;;4938595;28;20198;-85
2022/05/31 04:33:52;;;;;;;4.37;2.27;;;;;;;;;;4963943;28;20190;-85
2022/05/31 04:36:57;;;;;;;3.07;2.50;;;;;;;;;;4962986;28;20191;-85
2022/05/31 04:40:14;;;;;;;2.60;2.40;;;;;;;;;;4974799;28;20184;-85
2022/05/31 04:43:19;;;;;;;3.23;2.83;;;;;;;;;;4958908;28;20222;-85
2022/05/31 04:46:48;;;;;;;2.97;2.63;;;;;;;;;;4960905;28;20195;-85
2022/05/31 04:50:11;;;;;;;2.73;2.40;;;;;;;;;;4961145;28;20211;-85
2022/05/31 04:53:17;;;;;;;4.03;2.70;;;;;;;;;;4936638;28;20218;-85
2022/05/31 04:56:41;;;;;;;5.20;3.40;;;;;;;;;;4980343;28;20527;-85
2022/05/31 04:59:47;;;;;;;3.23;2.93;;;;;;;;;;4973786;28;20187;-84
2022/05/31 05:02:52;;;;;;;4.07;3.20;;;;;;;;;;4949446;29;20226;-85
2022/05/31 05:06:01;;;;;;;3.33;2.63;;;;;;;;;;4955419;29;20187;-85
2022/05/31 05:09:06;;;;;;;3.77;2.93;;;;;;;;;;4944967;28;20210;-85
2022/05/31 05:12:11;;;;;;;6.43;3.47;;;;;;;;;;4967717;28;20219;-85
2022/05/31 05:15:18;;;;;;;3.63;3.20;;;;;;;;;;4959393;28;20524;-85
2022/05/31 05:18:23;;;;;;;4.00;3.43;;;;;;;;;;4944040;29;20523;-85
2022/05/31 05:21:27;;;;;;;5.20;2.97;;;;;;;;;;4954722;29;20175;-85
2022/05/31 05:24:32;;;;;;;4.60;2.93;;;;;;;;;;4955061;29;20180;-86
2022/05/31 05:31:58;;;;;;;4.80;2.97;;;;;;;;;;4924974;28;20249;-86
2022/05/31 05:35:08;;;;;;;3.70;2.90;;;;;;;;;;4954877;29;20184;-86
2022/05/31 05:38:13;;;;;;;4.73;3.07;;;;;;;;;;4955810;28;20195;-86
2022/05/31 05:41:36;;;;;;;3.40;2.80;;;;;;;;;;4957861;29;20211;-86
2022/05/31 05:45:03;;;;;;;3.10;2.80;;;;;;;;;;4961312;28;20188;-86
2022/05/31 05:48:07;;;;;;;2.90;2.63;;;;;;;;;;4966490;28;20206;-86
2022/05/31 05:51:18;;;;;;;4.47;2.80;;;;;;;;;;4942589;29;20188;-85
2022/05/31 05:54:46;;;;;;;2.73;2.47;;;;;;;;;;4962055;28;20199;-86
2022/05/31 05:58:28;;;;;;;4.67;2.83;;;;;;;;;;4965442;28;20191;-85
2022/05/31 06:02:14;;;;;;;3.57;3.23;;;;;;;;;;4982206;23;20214;-87
2022/05/31 06:05:39;;;;;;;3.93;3.17;;;;;;;;;;5007643;28;20182;-88
2022/05/31 06:08:51;;;;;;;4.43;3.20;;;;;;;;;;4974073;28;20186;-88
2022/05/31 06:12:03;;;;;;;2.93;2.30;;;;;;;;;;4973779;28;20182;-87
2022/05/31 06:15:16;;;;;;;4.93;2.80;;;;;;;;;;4985197;28;20186;-87
2022/05/31 06:18:39;;;;;;;2.47;2.17;;;;;;;;;;4996386;28;20182;-87
2022/05/31 06:21:46;;;;;;;3.57;2.03;;;;;;;;;;4973757;28;20182;-87
2022/05/31 06:25:23;;;;;;;2.50;2.30;;;;;;;;;;4989501;28;20209;-89
2022/05/31 06:28:57;;;;;;;3.03;2.40;;;;;;;;;;4995015;28;20218;-88
2022/05/31 06:32:02;;;;;;;4.30;2.40;;;;;;;;;;4989962;28;20185;-87
2022/05/31 06:35:15;;;;;;;2.37;2.00;;;;;;;;;;4985508;28;20194;-88
2022/05/31 06:38:33;;;;;;;2.67;1.83;;;;;;;;;;4975753;28;20182;-88
2022/05/31 06:41:39;;;;;;;2.77;2.00;;;;;;;;;;4971841;28;20672;-88
2022/05/31 06:45:01;;;;;;;3.80;1.83;;;;;;;;;;4992444;28;20560;-89
2022/05/31 06:48:24;;;;;;;2.87;2.37;;;;;;;;;;4987937;28;20178;-88
2022/05/31 06:59:30;;;;;;;5.50;1.97;;;;;;;;;;4987279;28;21036;-89
2022/05/31 07:02:36;;;;;;;1.80;1.70;;;;;;;;;;4974564;28;20573;-88
2022/05/31 07:05:40;;;;;;;3.33;1.80;;;;;;;;;;4984133;28;20186;-88
2022/05/31 07:08:46;;;;;;;2.33;1.53;;;;;;;;;;4996875;28;20193;-86
2022/05/31 07:12:10;;;;;;;2.03;1.50;;;;;;;;;;4998613;28;20213;-88
2022/05/31 07:15:32;;;;;;;2.07;1.40;;;;;;;;;;4986612;28;20183;-88
2022/05/31 07:19:03;;;;;;;3.10;1.27;;;;;;;;;;4994683;28;20205;-87
2022/05/31 07:22:23;;;;;;;1.53;1.43;;;;;;;;;;5003331;28;20221;-89
2022/05/31 07:25:37;;;;;;;1.80;1.10;;;;;;;;;;4993864;28;20190;-88
2022/05/31 07:29:28;;;;;;;1.73;1.40;;;;;;;;;;5012971;28;20680;-89
2022/05/31 07:33:29;;;;;;;;;;;;;;;;;;;;;
2022/05/31 07:37:25;;;;;;;1.77;1.10;;;;;;;;;;4996136;28;20186;-87
2022/05/31 07:40:53;;;;;;;1.40;1.10;;;;;;;;;;4996080;28;20182;-85
2022/05/31 07:43:58;;;;;;;1.30;1.00;;;;;;;;;;5003125;28;20225;-86
2022/05/31 07:47:03;;;;;;;2.13;1.17;;;;;;;;;;4976710;28;20649;-86
2022/05/31 07:50:07;;;;;;;3.37;1.10;;;;;;;;;;4986218;28;20205;-86
2022/05/31 07:53:41;;;;;;;3.47;1.07;;;;;;;;;;4947117;28;20222;-85
2022/05/31 08:00:56;;;;;;;1.80;1.23;;;;;;;;;;5014239;28;20170;-85
2022/05/31 08:04:00;;;;;;;3.97;1.03;;;;;;;;;;5002053;28;20228;-85
2022/05/31 08:07:04;;;;;;;1.40;1.00;;;;;;;;;;4984054;28;20644;-85
2022/05/31 08:10:09;;;;;;;2.03;1.30;;;;;;;;;;4971952;28;20218;-85
2022/05/31 08:13:14;;;;;;;1.50;0.90;;;;;;;;;;4983821;28;20222;-85
2022/05/31 08:16:21;;;;;;;2.70;1.40;;;;;;;;;;4983012;28;20190;-86
2022/05/31 08:19:25;;;;;;;3.37;1.20;;;;;;;;;;4972543;28;20179;-86
2022/05/31 08:22:29;;;;;;;2.40;1.20;;;;;;;;;;5000685;28;20221;-86
2022/05/31 08:25:38;;;;;;;1.87;1.20;;;;;;;;;;5002598;28;20201;-86
2022/05/31 08:28:42;;;;;;;2.43;1.30;;;;;;;;;;4989384;28;20253;-88
2022/05/31 08:31:46;;;;;;;2.13;1.20;;;;;;;;;;4986314;28;20530;-87
2022/05/31 08:34:50;;;;;;;6.47;1.40;;;;;;;;;;4985160;28;20194;-88
2022/05/31 08:37:55;;;;;;;2.97;1.30;;;;;;;;;;4971559;28;20186;-84
2022/05/31 08:41:18;;;;;;;1.53;0.90;;;;;;;;;;4997030;28;20193;-87
2022/05/31 08:44:28;;;;;;;1.63;1.03;;;;;;;;;;5001795;28;20178;-87
2022/05/31 08:47:50;;;;;;;2.10;1.10;;;;;;;;;;5013452;28;20185;-87
2022/05/31 08:58:28;;;;;;;3.43;1.00;;;;;;;;;;4994754;28;20188;-86
2022/05/31 09:01:40;;;;;;;2.93;1.20;;;;;;;;;;4993895;28;20627;-86
2022/05/31 09:05:06;;;;;;;5.33;0.90;;;;;;;;;;4971472;28;20534;-86
2022/05/31 09:08:38;;;;;;;1.60;1.00;;;;;;;;;;5013206;28;20199;-85
2022/05/31 09:12:00;;;;;;;3.37;1.17;;;;;;;;;;4971441;28;20220;-85
2022/05/31 09:15:09;;;;;;;2.28;1.10;;;;;;;;;;4984957;28;20191;-86
2022/05/31 09:18:42;;;;;;;7.07;1.27;;;;;;;;;;4988535;28;20191;-86
2022/05/31 09:21:49;;;;;;;3.63;1.00;;;;;;;;;;4997494;28;20179;-86
2022/05/31 09:24:53;;;;;;;1.80;1.00;;;;;;;;;;5012770;28;20208;-85
2022/05/31 09:28:04;;;;;;;1.27;0.90;;;;;;;;;;4992200;28;20180;-85
2022/05/31 09:31:43;;;;;;;1.77;1.10;;;;;;;;;;5000583;28;20220;-85
2022/05/31 09:35:32;;;;;;;5.18;1.10;;;;;;;;;;4986006;28;20186;-85
2022/05/31 09:38:58;;;;;;;2.75;1.00;;;;;;;;;;4975166;28;20198;-85
2022/05/31 09:42:55;;;;;;;2.47;0.80;;;;;;;;;;5002358;28;20185;-86
2022/05/31 09:46:30;;;;;;;4.60;1.02;;;;;;;;;;4994101;28;20188;-85
2022/05/31 09:49:39;;;;;;;2.53;0.90;;;;;;;;;;4985182;28;20189;-85
2022/05/31 09:52:47;;;;;;;4.03;1.27;;;;;;;;;;4993217;28;20230;-85
2022/05/31 09:59:23;;;;;;;2.22;1.00;;;;;;;;;;5002498;28;20202;-85
2022/05/31 10:03:17;;;;;;;2.33;0.70;;;;;;;;;;4987646;28;20697;-85
2022/05/31 10:06:24;;;;;;;3.17;0.98;;;;;;;;;;4996831;28;20196;-85
2022/05/31 10:09:59;;;;;;;1.60;0.68;;;;;;;;;;4974419;28;20186;-85
2022/05/31 10:13:09;;;;;;;1.65;1.00;;;;;;;;;;4984800;28;20232;-85
2022/05/31 10:16:25;;;;;;;1.20;0.70;;;;;;;;;;4998687;28;20193;-86
2022/05/31 10:19:30;;;;;;;2.45;0.80;;;;;;;;;;4985113;28;20530;-86
2022/05/31 10:22:35;;;;;;;2.38;0.80;;;;;;;;;;4984172;28;20220;-87
2022/05/31 10:26:27;;;;;;;1.48;0.80;;;;;;;;;;5006602;28;20196;-85
2022/05/31 10:30:08;;;;;;;1.50;0.80;;;;;;;;;;5010285;28;20199;-85
2022/05/31 10:33:26;;;;;;;2.30;0.70;;;;;;;;;;4976876;28;20224;-85
2022/05/31 10:36:33;;;;;;;1.17;0.80;;;;;;;;;;4976590;28;20203;-86
2022/05/31 10:39:39;;;;;;;1.95;0.77;;;;;;;;;;5014805;28;20209;-85
2022/05/31 10:42:48;;;;;;;1.08;0.80;;;;;;;;;;4975635;28;20214;-86
2022/05/31 10:45:55;;;;;;;3.58;0.90;;;;;;;;;;4973748;28;20183;-85
2022/05/31 10:49:22;;;;;;;2.38;0.80;;;;;;;;;;4975889;28;20527;-85
2022/05/31 10:52:37;;;;;;;1.80;0.98;;;;;;;;;;5001198;28;20217;-85
2022/05/31 10:55:45;;;;;;;1.10;0.80;;;;;;;;;;4992729;28;20633;-85
2022/05/31 10:59:05;;;;;;;1.75;0.73;;;;;;;;;;4991327;28;20201;-85
2022/05/31 11:02:46;;;;;;;2.53;0.70;;;;;;;;;;4994989;28;20226;-85
2022/05/31 11:06:00;;;;;;;2.13;0.80;;;;;;;;;;4984718;28;20183;-85
2022/05/31 11:13:10;;;;;;;2.90;0.80;;;;;;;;;;4995789;28;20226;-85
2022/05/31 11:16:24;;;;;;;2.25;0.82;;;;;;;;;;4983638;28;20193;-85
2022/05/31 11:19:53;;;;;;;2.13;0.90;;;;;;;;;;4975081;28;20194;-85
2022/05/31 11:23:34;;;;;;;1.00;0.70;;;;;;;;;;4995650;28;20225;-85
2022/05/31 11:26:52;;;;;;;1.70;0.80;;;;;;;;;;4983526;28;20195;-85
2022/05/31 11:30:07;;;;;;;1.33;0.60;;;;;;;;;;4973840;28;20187;-85
2022/05/31 11:33:41;;;;;;;1.92;0.70;;;;;;;;;;4972492;28;20222;-85
2022/05/31 11:37:10;;;;;;;2.00;0.73;;;;;;;;;;4989350;28;20186;-85
2022/05/31 11:40:41;;;;;;;2.83;0.80;;;;;;;;;;4983587;28;20183;-85
2022/05/31 11:44:23;;;;;;;2.65;0.77;;;;;;;;;;4983819;28;20561;-86
2022/05/31 11:48:06;;;;;;;2.42;0.80;;;;;;;;;;4994597;28;20183;-85
2022/05/31 11:51:32;;;;;;;2.40;1.00;;;;;;;;;;4976093;28;20226;-85
2022/05/31 11:55:26;;;;;;;1.70;0.90;;;;;;;;;;4991868;28;20261;-86
2022/05/31 11:58:34;;;;;;;2.95;0.90;;;;;;;;;;4974768;28;20193;-86
2022/05/31 12:01:46;;;;;;;3.25;0.98;;;;;;;;;;4983732;28;20187;-86
2022/05/31 12:05:24;;;;;;;5.45;0.95;;;;;;;;;;5009812;23;20570;-84
2022/05/31 12:08:50;;;;;;;1.73;0.88;;;;;;;;;;4988554;28;20198;-84
2022/05/31 12:12:05;;;;;;;2.58;0.80;;;;;;;;;;5003426;28;20205;-84
2022/05/31 12:15:34;;;;;;;4.35;0.80;;;;;;;;;;5014509;28;20718;-84
2022/05/31 12:18:50;;;;;;;7.22;0.90;;;;;;;;;;4991728;28;20178;-84
2022/05/31 12:22:13;;;;;;;2.03;0.93;;;;;;;;;;4993178;28;20186;-83
2022/05/31 12:25:24;;;;;;;2.55;0.90;;;;;;;;;;4957622;28;20558;-83
2022/05/31 12:28:28;;;;;;;2.55;0.85;;;;;;;;;;4995682;28;20191;-84
2022/05/31 12:31:37;;;;;;;1.95;0.85;;;;;;;;;;4977727;28;20209;-84
2022/05/31 12:34:41;;;;;;;2.58;0.90;;;;;;;;;;5002481;28;20555;-84
2022/05/31 12:38:00;;;;;;;2.58;1.00;;;;;;;;;;4999317;28;20196;-83
2022/05/31 12:41:05;;;;;;;2.17;0.80;;;;;;;;;;5014158;28;20618;-82
2022/05/31 12:44:29;;;;;;;2.50;0.88;;;;;;;;;;4976461;28;20197;-83
2022/05/31 12:47:33;;;;;;;3.60;1.02;;;;;;;;;;4988284;28;20190;-84
2022/05/31 12:51:20;;;;;;;5.28;1.05;;;;;;;;;;4963038;28;20185;-82
2022/05/31 12:54:43;;;;;;;1.92;1.10;;;;;;;;;;5007014;28;20208;-82
2022/05/31 13:01:28;;;;;;;1.90;1.13;;;;;;;;;;4993231;28;20191;-82
2022/05/31 13:04:33;;;;;;;1.63;0.90;;;;;;;;;;4973287;28;20541;-82
2022/05/31 13:07:44;;;;;;;2.30;0.90;;;;;;;;;;4990687;28;20185;-82
2022/05/31 13:21:34;;;;;;;2.78;1.00;;;;;;;;;;4974213;28;20186;-82
2022/05/31 13:24:46;;;;;;;2.25;1.00;;;;;;;;;;4987870;28;20216;-82
2022/05/31 13:27:54;;;;;;;4.90;1.00;;;;;;;;;;5012973;28;20176;-82
2022/05/31 13:31:04;;;;;;;3.60;1.00;;;;;;;;;;4990514;28;20207;-82
2022/05/31 13:34:10;;;;;;;1.50;1.17;;;;;;;;;;4987930;28;20669;-82
2022/05/31 13:37:20;;;;;;;2.97;1.00;;;;;;;;;;5001916;28;20184;-82
2022/05/31 13:40:41;;;;;;;2.45;1.10;;;;;;;;;;4990025;28;20200;-82
2022/05/31 13:43:53;;;;;;;3.28;1.10;;;;;;;;;;5001615;28;20181;-82
2022/05/31 13:47:00;;;;;;;4.05;1.30;;;;;;;;;;4974008;28;20184;-82
2022/05/31 13:50:06;;;;;;;3.13;1.15;;;;;;;;;;4968807;28;20189;-83
2022/05/31 13:53:11;;;;;;;2.73;1.23;;;;;;;;;;5000346;28;20197;-82
2022/05/31 13:56:23;;;;;;;2.93;1.00;;;;;;;;;;4973316;28;20567;-82
2022/05/31 13:59:35;;;;;;;5.60;1.07;;;;;;;;;;4990502;28;20193;-82
2022/05/31 14:02:48;;;;;;;2.40;1.10;;;;;;;;;;4993910;28;20521;-82
2022/05/31 14:05:56;;;;;;;4.93;1.53;;;;;;;;;;4993265;28;20227;-82
2022/05/31 14:09:02;;;;;;;1.80;1.10;;;;;;;;;;5015304;28;20196;-82
2022/05/31 14:12:08;;;;;;;2.30;0.90;;;;;;;;;;4988272;28;20208;-82
2022/05/31 14:15:29;;;;;;;4.83;1.17;;;;;;;;;;4974211;28;20216;-82
2022/05/31 14:18:42;;;;;;;1.30;1.00;;;;;;;;;;4996613;28;20188;-82
2022/05/31 14:21:52;;;;;;;1.13;1.03;;;;;;;;;;4997664;28;20181;-82
2022/05/31 14:24:58;;;;;;;2.17;1.33;;;;;;;;;;4997162;28;20215;-80
2022/05/31 14:28:02;;;;;;;6.33;1.30;;;;;;;;;;4994569;28;20190;-81
2022/05/31 14:31:06;;;;;;;5.23;1.20;;;;;;;;;;4978960;28;20194;-82
2022/05/31 14:34:24;;;;;;;3.63;1.00;;;;;;;;;;4986789;28;20193;-82
2022/05/31 14:37:38;;;;;;;7.40;1.40;;;;;;;;;;4987274;28;20660;-83
2022/05/31 14:40:52;;;;;;;2.83;1.07;;;;;;;;;;4972083;28;20215;-83
2022/05/31 14:43:59;;;;;;;2.10;1.20;;;;;;;;;;4966359;28;20194;-83
2022/05/31 14:47:23;;;;;;;3.80;1.10;;;;;;;;;;4966142;28;20191;-83
2022/05/31 14:50:31;;;;;;;1.10;0.90;;;;;;;;;;4992396;28;20210;-86
2022/05/31 14:53:38;;;;;;;3.37;1.20;;;;;;;;;;4982435;28;20186;-85
2022/05/31 14:56:49;;;;;;;2.10;1.20;;;;;;;;;;4954423;28;20629;-86
2022/05/31 14:59:58;;;;;;;1.70;1.20;;;;;;;;;;4963964;28;20187;-90
2022/05/31 15:03:12;;;;;;;1.83;1.00;;;;;;;;;;4973678;28;20182;-83
2022/05/31 15:06:27;;;;;;;2.90;1.20;;;;;;;;;;4986249;28;20225;-83
2022/05/31 15:09:36;;;;;;;2.00;1.00;;;;;;;;;;4974700;28;20178;-83
2022/05/31 15:19:49;;;;;;;2.53;0.80;;;;;;;;;;5002469;28;20202;-83
2022/05/31 15:22:57;;;;;;;1.77;0.90;;;;;;;;;;5004012;28;20178;-84
2022/05/31 15:26:05;;;;;;;1.53;1.10;;;;;;;;;;4985591;28;20705;-83
2022/05/31 15:29:08;;;;;;;2.47;1.20;;;;;;;;;;4972814;28;20202;-83
2022/05/31 15:32:13;;;;;;;4.37;1.00;;;;;;;;;;4984852;28;20214;-83
2022/05/31 15:35:19;;;;;;;2.90;1.07;;;;;;;;;;4985175;28;20217;-83
2022/05/31 15:38:27;;;;;;;3.50;1.00;;;;;;;;;;4965008;28;20207;-83
2022/05/31 15:41:36;;;;;;;4.60;1.07;;;;;;;;;;4975958;28;20527;-82
2022/05/31 15:44:40;;;;;;;4.53;1.27;;;;;;;;;;4976188;28;20246;-82
2022/05/31 15:47:44;;;;;;;2.23;1.10;;;;;;;;;;4964775;28;20183;-82
2022/05/31 15:50:48;;;;;;;2.13;1.10;;;;;;;;;;4991098;28;20189;-83
2022/05/31 15:53:54;;;;;;;2.50;1.20;;;;;;;;;;4987629;28;20186;-82
2022/05/31 15:56:58;;;;;;;2.73;1.20;;;;;;;;;;4984154;28;20186;-83
2022/05/31 16:00:05;;;;;;;4.37;1.40;;;;;;;;;;4984971;28;20530;-83
2022/05/31 16:03:16;;;;;;;2.10;1.10;;;;;;;;;;4986541;28;20179;-83
2022/05/31 16:06:23;;;;;;;2.60;1.37;;;;;;;;;;4973751;28;20229;-83
2022/05/31 16:09:30;;;;;;;2.70;1.20;;;;;;;;;;4991674;28;20194;-80
2022/05/31 16:12:34;;;;;;;2.80;1.20;;;;;;;;;;4953270;28;20210;-84
2022/05/31 16:15:38;;;;;;;4.40;1.60;;;;;;;;;;4990827;28;20222;-84
2022/05/31 16:18:42;;;;;;;2.43;1.40;;;;;;;;;;4996725;28;20194;-84
2022/05/31 16:21:47;;;;;;;2.93;1.20;;;;;;;;;;4975932;28;20185;-85
2022/05/31 16:24:57;;;;;;;2.40;1.20;;;;;;;;;;4991128;28;20213;-84
2022/05/31 16:28:00;;;;;;;4.00;1.20;;;;;;;;;;4981434;28;20201;-85
2022/05/31 16:31:05;;;;;;;3.13;1.27;;;;;;;;;;4970366;28;20641;-83
2022/05/31 16:34:09;;;;;;;4.80;1.40;;;;;;;;;;4982948;28;20178;-83
2022/05/31 16:43:59;;;;;;;2.57;1.90;;;;;;;;;;4982609;28;20178;-83
2022/05/31 16:47:04;;;;;;;3.43;1.40;;;;;;;;;;4995561;28;20197;-83
2022/05/31 16:50:08;;;;;;;2.77;1.60;;;;;;;;;;4982375;28;20190;-83
2022/05/31 16:53:12;;;;;;;3.33;1.60;;;;;;;;;;4983445;28;20217;-84
2022/05/31 16:56:16;;;;;;;1.80;1.33;;;;;;;;;;4990260;28;20217;-85
2022/05/31 16:59:22;;;;;;;2.37;1.50;;;;;;;;;;4982349;28;20649;-83
2022/05/31 17:02:27;;;;;;;3.30;1.50;;;;;;;;;;4992981;28;20198;-82
2022/05/31 17:05:34;;;;;;;1.40;1.17;;;;;;;;;;4970881;28;20229;-82
2022/05/31 17:15:33;;;;;;;5.47;1.50;;;;;;;;;;5013202;28;20225;-84
2022/05/31 17:18:37;;;;;;;3.20;1.57;;;;;;;;;;5001593;28;20181;-84
2022/05/31 17:21:41;;;;;;;1.77;1.60;;;;;;;;;;4988515;28;20202;-85
2022/05/31 17:24:45;;;;;;;2.40;1.60;;;;;;;;;;4970903;28;20689;-83
2022/05/31 17:27:49;;;;;;;5.10;1.67;;;;;;;;;;4971085;28;20194;-85
2022/05/31 17:30:53;;;;;;;1.50;1.33;;;;;;;;;;4993414;28;20178;-86
2022/05/31 17:33:59;;;;;;;2.13;1.50;;;;;;;;;;4971639;28;20673;-85
2022/05/31 17:37:07;;;;;;;1.97;1.40;;;;;;;;;;4984154;28;20186;-84
2022/05/31 17:40:11;;;;;;;2.83;1.60;;;;;;;;;;4985653;28;20206;-85
2022/05/31 17:43:15;;;;;;;3.63;1.50;;;;;;;;;;4997170;28;20637;-85
2022/05/31 17:46:20;;;;;;;3.30;1.50;;;;;;;;;;4986249;28;20217;-84
2022/05/31 17:49:24;;;;;;;1.53;1.43;;;;;;;;;;4982515;28;20186;-85
2022/05/31 17:52:29;;;;;;;5.83;1.67;;;;;;;;;;4993725;28;20214;-86
2022/05/31 17:55:33;;;;;;;2.13;1.33;;;;;;;;;;4996733;28;20221;-86
2022/05/31 17:58:38;;;;;;;3.87;1.50;;;;;;;;;;4986009;28;20186;-86
2022/05/31 18:01:42;;;;;;;2.00;1.43;;;;;;;;;;4985128;28;20201;-86
2022/05/31 18:04:47;;;;;;;1.40;1.20;;;;;;;;;;4974362;28;20226;-86
2022/05/31 18:07:51;;;;;;;1.97;1.40;;;;;;;;;;4992166;23;20230;-86
2022/05/31 18:10:58;;;;;;;2.50;1.47;;;;;;;;;;4972914;28;20798;-87
2022/05/31 18:14:11;;;;;;;5.57;1.50;;;;;;;;;;4970416;28;20214;-87
2022/05/31 18:17:16;;;;;;;2.90;1.40;;;;;;;;;;4978708;28;20215;-86
2022/05/31 18:20:20;;;;;;;2.43;1.50;;;;;;;;;;4971266;28;20198;-86
2022/05/31 18:23:25;;;;;;;3.77;1.43;;;;;;;;;;4954368;28;20179;-87
2022/05/31 18:26:31;;;;;;;3.80;1.60;;;;;;;;;;4959098;28;20219;-87
2022/05/31 18:29:42;;;;;;;1.90;1.40;;;;;;;;;;4960750;28;20183;-87
2022/05/31 18:32:46;;;;;;;3.90;1.40;;;;;;;;;;4950633;29;20211;-87
2022/05/31 18:35:52;;;;;;;5.37;1.70;;;;;;;;;;4970609;29;20619;-87
2022/05/31 18:39:00;;;;;;;1.40;1.20;;;;;;;;;;4980127;28;20180;-87
2022/05/31 18:42:18;;;;;;;3.47;1.60;;;;;;;;;;4976689;28;20183;-87
2022/05/31 18:45:22;;;;;;;2.13;1.60;;;;;;;;;;4972101;28;20199;-87
2022/05/31 18:48:30;;;;;;;2.63;1.47;;;;;;;;;;4969204;28;20202;-87
2022/05/31 18:51:34;;;;;;;2.77;1.37;;;;;;;;;;4965675;28;20199;-88
2022/05/31 18:54:38;;;;;;;1.90;1.50;;;;;;;;;;4952099;28;20183;-87
2022/05/31 18:57:54;;;;;;;2.67;1.57;;;;;;;;;;4965475;28;20218;-87
2022/05/31 19:00:58;;;;;;;2.47;1.27;;;;;;;;;;4961872;29;20524;-86
2022/05/31 19:04:03;;;;;;;1.70;1.40;;;;;;;;;;4952979;28;20615;-87
2022/05/31 19:07:07;;;;;;;2.97;1.40;;;;;;;;;;4954873;29;20231;-87
2022/05/31 19:10:39;;;;;;;3.53;1.30;;;;;;;;;;4955744;28;20204;-87
2022/05/31 19:13:43;;;;;;;2.17;1.30;;;;;;;;;;4937802;29;20557;-86
2022/05/31 19:16:47;;;;;;;1.90;1.33;;;;;;;;;;4951360;28;20215;-86
2022/05/31 19:19:52;;;;;;;2.00;1.40;;;;;;;;;;4953984;28;20182;-86
2022/05/31 19:22:56;;;;;;;1.87;1.67;;;;;;;;;;4953315;28;20535;-86
2022/05/31 19:26:00;;;;;;;5.10;1.57;;;;;;;;;;4972421;28;20226;-86
2022/05/31 19:29:04;;;;;;;4.03;1.70;;;;;;;;;;4974757;28;20191;-85
2022/05/31 19:32:13;;;;;;;7.03;1.80;;;;;;;;;;4973298;28;20191;-86
2022/05/31 19:35:20;;;;;;;4.20;2.00;;;;;;;;;;4964088;28;20195;-86
2022/05/31 19:38:31;;;;;;;4.57;1.47;;;;;;;;;;4945625;29;20563;-86
2022/05/31 19:41:41;;;;;;;2.57;1.73;;;;;;;;;;4960810;28;20207;-86
2022/05/31 19:44:45;;;;;;;2.77;1.90;;;;;;;;;;4965161;28;20183;-85
2022/05/31 19:47:49;;;;;;;4.93;1.90;;;;;;;;;;4951892;29;20690;-86
2022/05/31 19:50:53;;;;;;;2.50;1.50;;;;;;;;;;4968455;28;20195;-86
2022/05/31 19:53:58;;;;;;;2.80;1.90;;;;;;;;;;4956733;29;20207;-86
2022/05/31 19:57:03;;;;;;;4.07;1.80;;;;;;;;;;4971048;28;20689;-86
2022/05/31 20:00:10;;;;;;;3.17;1.80;;;;;;;;;;4952014;28;20171;-86
2022/05/31 20:03:16;;;;;;;1.90;1.50;;;;;;;;;;4953878;28;20183;-85
2022/05/31 20:06:22;;;;;;;2.07;1.57;;;;;;;;;;4952167;28;20562;-84
2022/05/31 20:12:52;;;;;;;3.33;1.40;;;;;;;;;;4985453;28;20649;-85
2022/05/31 20:15:56;;;;;;;2.30;1.60;;;;;;;;;;4986203;28;20183;-85
2022/05/31 20:19:06;;;;;;;2.10;1.67;;;;;;;;;;4925580;29;20176;-85
2022/05/31 20:22:14;;;;;;;4.40;1.80;;;;;;;;;;4947181;28;20195;-85
2022/05/31 20:25:19;;;;;;;1.60;1.50;;;;;;;;;;4959897;28;20646;-85
2022/05/31 20:28:23;;;;;;;3.47;1.80;;;;;;;;;;4963212;28;20202;-85